createdAt,value
2023-05-08T00:01:35.180Z,13.16
2023-05-08T00:04:02.975Z,12.99
2023-05-08T00:06:31.079Z,12.85
2023-05-08T00:08:58.420Z,12.77
2023-05-08T00:11:26.092Z,12.80
2023-05-08T00:13:53.454Z,12.82
2023-05-08T00:16:20.926Z,12.81
2023-05-08T00:18:48.581Z,12.72
2023-05-08T00:21:15.986Z,12.69
2023-05-08T00:23:43.428Z,12.65
2023-05-08T00:26:11.101Z,12.65
2023-05-08T00:28:38.543Z,13.04
2023-05-08T00:31:06.797Z,12.91
2023-05-08T00:33:34.415Z,12.73
2023-05-08T00:36:02.949Z,12.58
2023-05-08T00:38:31.609Z,12.76
2023-05-08T00:40:59.401Z,12.90
2023-05-08T00:43:28.412Z,12.87
2023-05-08T00:45:56.964Z,12.67
2023-05-08T00:48:25.460Z,12.81
2023-05-08T00:50:54.841Z,12.63
2023-05-08T00:53:22.958Z,12.50
2023-05-08T00:55:51.847Z,12.56
2023-05-08T00:58:21.532Z,12.46
2023-05-08T01:00:50.828Z,12.69
2023-05-08T01:03:18.599Z,12.86
2023-05-08T01:05:48.632Z,12.61
2023-05-08T01:08:16.220Z,12.69
2023-05-08T01:11:08.363Z,12.88
2023-05-08T01:13:41.480Z,12.89
2023-05-08T01:16:18.333Z,12.96
2023-05-08T01:19:30.771Z,12.82
2023-05-08T01:22:50.867Z,12.78
2023-05-08T01:25:30.164Z,12.65
2023-05-08T01:28:11.300Z,12.55
2023-05-08T01:31:18.635Z,12.38
2023-05-08T01:34:06.565Z,12.31
2023-05-08T01:36:45.520Z,12.61
2023-05-08T01:39:22.689Z,12.47
2023-05-08T01:42:04.694Z,12.40
2023-05-08T01:44:36.448Z,12.47
2023-05-08T01:47:07.846Z,12.30
2023-05-08T01:49:45.302Z,12.32
2023-05-08T01:52:21.300Z,12.39
2023-05-08T01:54:59.008Z,12.55
2023-05-08T01:57:28.475Z,12.35
2023-05-08T01:59:58.266Z,12.52
2023-05-08T02:02:26.352Z,12.56
2023-05-08T02:04:54.801Z,12.58
2023-05-08T02:07:23.052Z,12.38
2023-05-08T02:09:51.004Z,12.51
2023-05-08T02:12:19.004Z,12.53
2023-05-08T02:14:47.215Z,12.36
2023-05-08T02:17:16.401Z,12.24
2023-05-08T02:19:44.585Z,12.24
2023-05-08T02:22:14.147Z,12.34
2023-05-08T02:24:42.384Z,12.27
2023-05-08T02:27:11.060Z,12.24
2023-05-08T02:29:38.869Z,12.09
2023-05-08T02:32:06.838Z,12.09
2023-05-08T02:34:35.498Z,12.14
2023-05-08T02:37:03.554Z,12.02
2023-05-08T02:39:32.004Z,12.39
2023-05-08T02:42:00.701Z,12.07
2023-05-08T02:44:29.449Z,11.97
2023-05-08T02:47:04.588Z,12.06
2023-05-08T02:49:59.298Z,11.98
2023-05-08T02:52:29.900Z,12.23
2023-05-08T02:55:05.989Z,11.76
2023-05-08T02:57:42.507Z,11.77
2023-05-08T03:00:23.721Z,11.81
2023-05-08T03:03:00.400Z,11.86
2023-05-08T03:05:34.300Z,11.69
2023-05-08T03:08:08.134Z,11.79
2023-05-08T03:10:37.219Z,11.63
2023-05-08T03:13:06.669Z,11.56
2023-05-08T03:15:37.935Z,11.75
2023-05-08T03:18:08.211Z,11.63
2023-05-08T03:20:39.140Z,11.54
2023-05-08T03:23:08.510Z,11.89
2023-05-08T03:25:36.738Z,11.55
2023-05-08T03:28:05.980Z,11.55
2023-05-08T03:30:36.866Z,11.72
2023-05-08T03:33:07.472Z,11.63
2023-05-08T03:35:37.027Z,11.76
2023-05-08T03:38:05.721Z,11.87
2023-05-08T03:40:36.889Z,11.56
2023-05-08T03:43:07.209Z,11.60
2023-05-08T03:45:39.562Z,11.73
2023-05-08T03:48:08.620Z,11.77
2023-05-08T03:50:38.360Z,11.90
2023-05-08T03:53:06.134Z,11.98
2023-05-08T03:55:33.940Z,11.93
2023-05-08T03:58:24.782Z,11.75
2023-05-08T04:00:53.807Z,12.15
2023-05-08T04:04:01.736Z,11.89
2023-05-08T04:06:42.449Z,12.03
2023-05-08T04:09:24.888Z,12.01
2023-05-08T04:11:56.293Z,12.05
2023-05-08T04:14:26.426Z,11.95
2023-05-08T04:16:58.195Z,12.10
2023-05-08T04:19:29.049Z,12.14
2023-05-08T04:21:59.691Z,12.35
2023-05-08T04:24:28.802Z,12.09
2023-05-08T04:26:56.842Z,12.20
2023-05-08T04:29:24.646Z,12.33
2023-05-08T04:31:52.738Z,12.28
2023-05-08T04:34:20.255Z,12.52
2023-05-08T04:36:48.651Z,12.34
2023-05-08T04:39:16.344Z,12.61
2023-05-08T04:41:43.770Z,12.51
2023-05-08T04:44:11.935Z,12.77
2023-05-08T04:46:39.925Z,12.69
2023-05-08T04:49:07.416Z,12.71
2023-05-08T04:51:34.940Z,12.91
2023-05-08T04:54:02.663Z,12.60
2023-05-08T04:56:30.395Z,12.56
2023-05-08T04:58:57.871Z,12.43
2023-05-08T05:01:26.004Z,11.91
2023-05-08T05:03:53.431Z,12.55
2023-05-08T05:06:20.907Z,12.58
2023-05-08T05:08:48.707Z,12.61
2023-05-08T05:11:16.276Z,12.37
2023-05-08T05:13:43.650Z,12.68
2023-05-08T05:16:11.881Z,12.10
2023-05-08T05:18:39.705Z,12.55
2023-05-08T05:21:07.117Z,12.55
2023-05-08T05:23:34.937Z,12.88
2023-05-08T05:26:02.529Z,12.83
2023-05-08T05:28:30.949Z,13.07
2023-05-08T05:30:58.976Z,13.07
2023-05-08T05:33:26.439Z,13.23
2023-05-08T05:35:53.838Z,13.33
2023-05-08T05:38:21.785Z,13.34
2023-05-08T05:40:49.417Z,12.70
2023-05-08T05:43:16.874Z,13.43
2023-05-08T05:45:44.603Z,13.34
2023-05-08T05:48:12.270Z,12.86
2023-05-08T05:50:40.622Z,13.08
2023-05-08T05:53:08.330Z,13.45
2023-05-08T05:55:35.944Z,13.62
2023-05-08T05:58:03.449Z,13.78
2023-05-08T06:00:32.209Z,13.72
2023-05-08T06:03:00.413Z,13.34
2023-05-08T06:05:28.709Z,13.75
2023-05-08T06:07:56.374Z,13.19
2023-05-08T06:10:24.568Z,13.06
2023-05-08T06:12:51.998Z,13.35
2023-05-08T06:15:19.643Z,13.44
2023-05-08T06:17:47.428Z,13.52
2023-05-08T06:20:15.003Z,13.71
2023-05-08T06:22:42.511Z,12.96
2023-05-08T06:25:11.060Z,13.38
2023-05-08T06:27:38.826Z,13.31
2023-05-08T06:30:10.657Z,13.15
2023-05-08T06:32:38.455Z,13.57
2023-05-08T06:35:06.397Z,13.77
2023-05-08T06:37:33.782Z,13.82
2023-05-08T06:40:11.511Z,13.82
2023-05-08T06:42:40.416Z,13.83
2023-05-08T06:45:09.469Z,13.80
2023-05-08T06:47:36.952Z,13.86
2023-05-08T06:50:04.819Z,13.77
2023-05-08T06:52:32.958Z,13.91
2023-05-08T06:55:00.489Z,14.07
2023-05-08T06:57:30.604Z,14.16
2023-05-08T06:59:58.413Z,14.19
2023-05-08T07:02:25.809Z,14.12
2023-05-08T07:04:54.358Z,14.37
2023-05-08T07:07:22.340Z,14.40
2023-05-08T07:09:49.846Z,14.26
2023-05-08T07:12:17.324Z,13.99
2023-05-08T07:14:45.406Z,14.14
2023-05-08T07:17:12.810Z,14.65
2023-05-08T07:19:40.504Z,15.16
2023-05-08T07:22:08.221Z,15.38
2023-05-08T07:24:35.548Z,15.39
2023-05-08T07:27:03.149Z,15.39
2023-05-08T07:29:30.815Z,15.66
2023-05-08T07:31:58.309Z,15.80
2023-05-08T07:34:25.807Z,15.42
2023-05-08T07:36:53.545Z,15.30
2023-05-08T07:39:21.322Z,15.38
2023-05-08T07:41:49.879Z,15.73
2023-05-08T07:44:17.778Z,16.13
2023-05-08T07:46:45.474Z,15.57
2023-05-08T07:49:12.913Z,15.94
2023-05-08T07:51:41.381Z,15.93
2023-05-08T07:54:08.787Z,15.70
2023-05-08T07:56:36.301Z,15.87
2023-05-08T07:59:03.964Z,16.14
2023-05-08T08:01:31.642Z,16.03
2023-05-08T08:03:59.374Z,16.41
2023-05-08T08:06:26.935Z,16.29
2023-05-08T08:08:54.324Z,16.29
2023-05-08T08:11:22.726Z,16.69
2023-05-08T08:13:50.138Z,16.87
2023-05-08T08:16:17.575Z,17.18
2023-05-08T08:18:45.408Z,17.16
2023-05-08T08:21:12.751Z,16.99
2023-05-08T08:23:40.132Z,16.74
2023-05-08T08:26:07.795Z,16.49
2023-05-08T08:28:35.134Z,16.86
2023-05-08T08:31:02.567Z,16.88
2023-05-08T08:33:31.288Z,17.34
2023-05-08T08:35:58.675Z,17.61
2023-05-08T08:38:26.249Z,17.96
2023-05-08T08:40:54.314Z,17.93
2023-05-08T08:43:21.934Z,16.76
2023-05-08T08:45:49.347Z,17.06
2023-05-08T08:48:17.111Z,17.23
2023-05-08T08:50:47.572Z,17.86
2023-05-08T08:53:27.752Z,17.96
2023-05-08T08:55:58.752Z,18.06
2023-05-08T08:58:40.947Z,18.01
2023-05-08T09:01:09.742Z,17.31
2023-05-08T09:03:37.595Z,17.08
2023-05-08T09:06:05.488Z,17.75
2023-05-08T09:08:33.610Z,18.00
2023-05-08T09:11:01.921Z,17.97
2023-05-08T09:13:30.654Z,18.70
2023-05-08T09:15:59.297Z,18.63
2023-05-08T09:18:26.768Z,18.69
2023-05-08T09:20:54.367Z,18.81
2023-05-08T09:23:22.168Z,18.71
2023-05-08T09:25:50.775Z,18.18
2023-05-08T09:28:22.557Z,18.56
2023-05-08T09:30:55.318Z,18.58
2023-05-08T09:33:25.344Z,18.94
2023-05-08T09:35:53.680Z,19.40
2023-05-08T09:38:30.143Z,19.24
2023-05-08T09:41:15.977Z,19.27
2023-05-08T09:43:44.727Z,18.93
2023-05-08T09:46:23.844Z,19.38
2023-05-08T09:48:59.179Z,19.63
2023-05-08T09:51:28.730Z,19.72
2023-05-08T09:53:57.734Z,20.42
2023-05-08T09:56:38.956Z,20.14
2023-05-08T09:59:23.168Z,20.04
2023-05-08T10:01:51.036Z,20.03
2023-05-08T10:04:33.071Z,20.04
2023-05-08T10:07:00.915Z,19.76
2023-05-08T10:09:38.857Z,19.67
2023-05-08T10:12:14.668Z,19.86
2023-05-08T10:14:44.105Z,19.48
2023-05-08T10:17:15.698Z,20.19
2023-05-08T10:19:46.062Z,20.38
2023-05-08T10:22:14.715Z,20.25
2023-05-08T10:24:44.327Z,20.60
2023-05-08T10:27:16.537Z,20.17
2023-05-08T10:29:52.634Z,20.23
2023-05-08T10:32:21.608Z,20.59
2023-05-08T10:35:09.952Z,20.50
2023-05-08T10:37:39.030Z,20.54
2023-05-08T10:40:06.986Z,20.39
2023-05-08T10:42:37.549Z,20.27
2023-05-08T10:45:06.096Z,20.91
2023-05-08T10:47:36.842Z,20.95
2023-05-08T10:50:11.101Z,21.25
2023-05-08T10:52:44.739Z,20.98
2023-05-08T10:55:30.773Z,21.48
2023-05-08T10:58:15.591Z,21.36
2023-05-08T11:00:52.014Z,21.53
2023-05-08T11:03:30.778Z,21.32
2023-05-08T11:06:01.002Z,20.74
2023-05-08T11:08:29.735Z,21.07
2023-05-08T11:11:02.440Z,21.11
2023-05-08T11:13:37.308Z,21.10
2023-05-08T11:16:10.115Z,21.54
2023-05-08T11:18:49.129Z,20.75
2023-05-08T11:21:23.798Z,21.37
2023-05-08T11:24:00.361Z,21.21
2023-05-08T11:26:40.701Z,21.64
2023-05-08T11:29:18.770Z,21.62
2023-05-08T11:31:50.305Z,21.57
2023-05-08T11:34:43.447Z,21.99
2023-05-08T11:37:12.126Z,21.70
2023-05-08T11:39:39.767Z,21.56
2023-05-08T11:42:36.698Z,21.69
2023-05-08T11:45:13.611Z,21.59
2023-05-08T11:47:45.492Z,21.66
2023-05-08T11:50:14.107Z,22.00
2023-05-08T11:52:43.055Z,22.01
2023-05-08T11:55:11.930Z,21.83
2023-05-08T11:57:39.977Z,21.78
2023-05-08T12:00:11.947Z,21.32
2023-05-08T12:02:46.786Z,21.44
2023-05-08T12:05:14.349Z,21.71
2023-05-08T12:07:48.660Z,21.59
2023-05-08T12:10:16.999Z,21.80
2023-05-08T12:12:45.488Z,21.67
2023-05-08T12:15:14.900Z,21.77
2023-05-08T12:17:43.036Z,21.91
2023-05-08T12:20:15.877Z,21.98
2023-05-08T12:22:53.058Z,21.81
2023-05-08T12:25:20.785Z,22.07
2023-05-08T12:27:49.668Z,22.45
2023-05-08T12:30:17.807Z,22.32
2023-05-08T12:32:46.611Z,22.10
2023-05-08T12:35:14.517Z,22.26
2023-05-08T12:37:41.919Z,21.83
2023-05-08T12:40:24.628Z,21.55
2023-05-08T12:42:52.302Z,21.61
2023-05-08T12:45:25.975Z,21.72
2023-05-08T12:47:56.316Z,21.83
2023-05-08T12:50:26.859Z,21.62
2023-05-08T12:52:54.678Z,22.09
2023-05-08T12:55:29.639Z,22.45
2023-05-08T12:58:05.834Z,22.07
2023-05-08T13:00:47.732Z,22.14
2023-05-08T13:03:26.487Z,22.27
2023-05-08T13:05:55.963Z,21.71
2023-05-08T13:08:34.794Z,22.31
2023-05-08T13:11:04.056Z,21.29
2023-05-08T13:13:34.585Z,21.03
2023-05-08T13:16:07.301Z,21.67
2023-05-08T13:18:37.794Z,21.96
2023-05-08T13:21:05.459Z,21.91
2023-05-08T13:23:32.864Z,21.66
2023-05-08T13:26:00.617Z,21.77
2023-05-08T13:28:28.039Z,22.11
2023-05-08T13:30:55.465Z,21.51
2023-05-08T13:33:23.112Z,21.81
2023-05-08T13:35:50.541Z,21.91
2023-05-08T13:38:17.895Z,22.31
2023-05-08T13:40:45.923Z,22.02
2023-05-08T13:43:13.286Z,22.28
2023-05-08T13:45:40.764Z,21.55
2023-05-08T13:48:08.495Z,22.03
2023-05-08T13:50:35.930Z,22.39
2023-05-08T13:53:03.317Z,22.58
2023-05-08T13:55:31.014Z,22.64
2023-05-08T13:57:58.917Z,22.47
2023-05-08T14:00:28.055Z,22.67
2023-05-08T14:02:56.181Z,21.95
2023-05-08T14:05:25.041Z,22.26
2023-05-08T14:07:52.462Z,22.34
2023-05-08T14:10:20.364Z,22.32
2023-05-08T14:12:47.824Z,22.23
2023-05-08T14:15:15.962Z,21.95
2023-05-08T14:17:43.935Z,22.04
2023-05-08T14:20:12.181Z,22.22
2023-05-08T14:22:39.857Z,22.37
2023-05-08T14:25:08.361Z,22.20
2023-05-08T14:27:35.951Z,21.89
2023-05-08T14:30:03.825Z,21.26
2023-05-08T14:32:33.555Z,20.88
2023-05-08T14:35:00.963Z,21.14
2023-05-08T14:37:28.372Z,20.95
2023-05-08T14:39:57.704Z,20.40
2023-05-08T14:42:25.114Z,20.70
2023-05-08T14:44:52.938Z,20.85
2023-05-08T14:47:20.598Z,20.71
2023-05-08T14:49:47.977Z,20.78
2023-05-08T14:52:15.786Z,20.88
2023-05-08T14:54:43.662Z,20.80
2023-05-08T14:57:11.172Z,20.70
2023-05-08T14:59:43.523Z,20.94
2023-05-08T15:02:18.082Z,21.07
2023-05-08T15:04:46.121Z,20.65
2023-05-08T15:07:13.527Z,21.01
2023-05-08T15:09:41.229Z,20.54
2023-05-08T15:12:08.610Z,20.25
2023-05-08T15:14:36.059Z,20.45
2023-05-08T15:17:04.112Z,20.80
2023-05-08T15:19:31.466Z,20.46
2023-05-08T15:21:58.902Z,20.57
2023-05-08T15:24:26.591Z,20.92
2023-05-08T15:26:54.005Z,20.71
2023-05-08T15:29:21.390Z,20.23
2023-05-08T15:31:49.140Z,20.69
2023-05-08T15:34:16.610Z,20.27
2023-05-08T15:36:45.469Z,20.34
2023-05-08T15:39:13.335Z,20.67
2023-05-08T15:41:41.293Z,20.30
2023-05-08T15:44:09.324Z,20.35
2023-05-08T15:46:37.232Z,20.15
2023-05-08T15:49:04.636Z,20.27
2023-05-08T15:51:32.225Z,20.47
2023-05-08T15:53:59.935Z,20.27
2023-05-08T15:56:27.393Z,20.52
2023-05-08T15:58:54.932Z,20.53
2023-05-08T16:01:22.640Z,20.08
2023-05-08T16:03:50.525Z,19.84
2023-05-08T16:06:17.934Z,20.02
2023-05-08T16:08:45.377Z,20.12
2023-05-08T16:11:13.067Z,19.99
2023-05-08T16:13:40.428Z,20.14
2023-05-08T16:16:07.860Z,20.17
2023-05-08T16:18:35.598Z,19.84
2023-05-08T16:21:08.514Z,20.08
2023-05-08T16:23:36.236Z,20.08
2023-05-08T16:26:03.653Z,20.31
2023-05-08T16:28:31.035Z,19.65
2023-05-08T16:30:58.846Z,19.88
2023-05-08T16:33:27.402Z,19.73
2023-05-08T16:35:54.879Z,19.99
2023-05-08T16:38:22.501Z,19.80
2023-05-08T16:40:49.918Z,19.65
2023-05-08T16:43:17.275Z,19.82
2023-05-08T16:45:45.557Z,19.89
2023-05-08T16:48:12.911Z,19.29
2023-05-08T16:50:40.366Z,19.22
2023-05-08T16:53:08.021Z,19.16
2023-05-08T16:55:35.375Z,18.83
2023-05-08T16:58:04.700Z,18.50
2023-05-08T17:00:32.420Z,18.29
2023-05-08T17:02:59.949Z,18.10
2023-05-08T17:05:27.400Z,18.44
2023-05-08T17:07:55.323Z,17.95
2023-05-08T17:10:22.812Z,17.68
2023-05-08T17:12:51.726Z,17.58
2023-05-08T17:15:20.652Z,17.71
2023-05-08T17:17:49.661Z,17.78
2023-05-08T17:20:17.378Z,17.28
2023-05-08T17:22:45.051Z,16.79
2023-05-08T17:25:12.426Z,16.77
2023-05-08T17:27:39.810Z,16.71
2023-05-08T17:30:11.969Z,16.51
2023-05-08T17:32:39.698Z,16.54
2023-05-08T17:35:07.916Z,16.66
2023-05-08T17:37:35.428Z,16.42
2023-05-08T17:40:02.932Z,16.27
2023-05-08T17:42:33.100Z,16.37
2023-05-08T17:45:00.717Z,16.35
2023-05-08T17:47:28.085Z,16.48
2023-05-08T17:49:55.810Z,15.91
2023-05-08T17:52:24.247Z,15.80
2023-05-08T17:54:51.704Z,15.39
2023-05-08T17:57:19.406Z,15.50
2023-05-08T17:59:46.815Z,15.57
2023-05-08T18:02:14.211Z,15.69
2023-05-08T18:04:42.115Z,15.81
2023-05-08T18:07:11.323Z,15.38
2023-05-08T18:09:38.743Z,15.04
2023-05-08T18:12:06.660Z,15.15
2023-05-08T18:14:34.190Z,15.07
2023-05-08T18:17:02.200Z,15.06
2023-05-08T18:19:30.136Z,15.00
2023-05-08T18:21:57.507Z,14.84
2023-05-08T18:24:24.898Z,14.67
2023-05-08T18:26:52.835Z,14.52
2023-05-08T18:29:20.541Z,14.35
2023-05-08T18:31:48.047Z,14.22
2023-05-08T18:34:15.826Z,14.06
2023-05-08T18:36:43.191Z,13.81
2023-05-08T18:39:11.135Z,14.01
2023-05-08T18:41:39.086Z,13.59
2023-05-08T18:44:06.968Z,14.05
2023-05-08T18:46:34.584Z,13.85
2023-05-08T18:49:03.138Z,13.80
2023-05-08T18:51:31.082Z,13.86
2023-05-08T18:53:58.628Z,13.33
2023-05-08T18:56:26.528Z,13.11
2023-05-08T18:58:55.180Z,12.99
2023-05-08T19:01:22.910Z,12.95
2023-05-08T19:03:51.653Z,12.79
2023-05-08T19:06:19.810Z,12.64
2023-05-08T19:08:48.594Z,12.74
2023-05-08T19:11:16.992Z,12.79
2023-05-08T19:13:44.442Z,12.66
2023-05-08T19:16:13.506Z,12.72
2023-05-08T19:18:41.634Z,12.78
2023-05-08T19:21:10.715Z,12.49
2023-05-08T19:23:38.388Z,12.84
2023-05-08T19:26:06.043Z,13.07
2023-05-08T19:28:34.622Z,12.79
2023-05-08T19:31:02.148Z,12.74
2023-05-08T19:33:29.918Z,12.48
2023-05-08T19:35:57.302Z,12.62
2023-05-08T19:38:24.733Z,12.67
2023-05-08T19:40:56.691Z,12.91
2023-05-08T19:43:28.121Z,12.69
2023-05-08T19:45:56.055Z,12.45
2023-05-08T19:48:24.019Z,12.41
2023-05-08T19:50:54.665Z,12.89
2023-05-08T19:53:23.519Z,12.45
2023-05-08T19:55:51.083Z,12.55
2023-05-08T19:58:18.490Z,12.40
2023-05-08T20:00:50.826Z,12.63
2023-05-08T20:03:19.386Z,12.13
2023-05-08T20:05:46.891Z,12.32
2023-05-08T20:08:14.298Z,12.28
2023-05-08T20:10:41.966Z,11.82
2023-05-08T20:13:09.393Z,11.71
2023-05-08T20:15:36.795Z,11.67
2023-05-08T20:18:04.475Z,11.95
2023-05-08T20:20:32.514Z,11.97
2023-05-08T20:23:00.178Z,11.97
2023-05-08T20:25:28.545Z,11.61
2023-05-08T20:27:55.934Z,11.63
2023-05-08T20:30:23.958Z,11.63
2023-05-08T20:32:51.724Z,11.65
2023-05-08T20:35:19.761Z,11.49
2023-05-08T20:37:48.412Z,11.64
2023-05-08T20:40:16.544Z,11.62
2023-05-08T20:42:44.234Z,11.86
2023-05-08T20:45:12.309Z,12.24
2023-05-08T20:47:40.609Z,12.32
2023-05-08T20:50:08.461Z,12.11
2023-05-08T20:52:38.050Z,12.08
2023-05-08T20:55:07.634Z,12.24
2023-05-08T20:57:35.165Z,12.13
2023-05-08T21:00:02.562Z,12.47
2023-05-08T21:02:30.288Z,12.13
2023-05-08T21:04:57.725Z,12.26
2023-05-08T21:07:25.499Z,12.32
2023-05-08T21:09:53.315Z,12.59
2023-05-08T21:12:20.838Z,12.80
2023-05-08T21:14:48.609Z,12.79
2023-05-08T21:17:16.808Z,12.46
2023-05-08T21:19:44.214Z,12.61
2023-05-08T21:22:13.798Z,12.43
2023-05-08T21:24:44.630Z,12.54
2023-05-08T21:27:12.033Z,12.33
2023-05-08T21:29:39.674Z,12.24
2023-05-08T21:32:09.955Z,12.30
2023-05-08T21:34:37.816Z,12.49
2023-05-08T21:37:05.308Z,12.50
2023-05-08T21:39:32.993Z,12.46
2023-05-08T21:42:01.242Z,12.39
2023-05-08T21:44:28.898Z,12.41
2023-05-08T21:46:56.576Z,12.41
2023-05-08T21:49:24.209Z,12.48
2023-05-08T21:51:52.996Z,12.18
2023-05-08T21:54:23.193Z,12.51
2023-05-08T21:56:53.525Z,12.32
2023-05-08T21:59:21.331Z,12.22
2023-05-08T22:01:48.800Z,12.52
2023-05-08T22:04:16.498Z,12.53
2023-05-08T22:06:45.359Z,12.45
2023-05-08T22:09:12.719Z,12.45
2023-05-08T22:11:40.363Z,12.30
2023-05-08T22:14:07.962Z,12.59
2023-05-08T22:16:35.404Z,12.46
2023-05-08T22:19:03.054Z,12.46
2023-05-08T22:21:32.084Z,12.28
2023-05-08T22:23:59.487Z,12.36
2023-05-08T22:26:28.815Z,12.34
2023-05-08T22:28:56.193Z,12.25
2023-05-08T22:31:23.600Z,11.99
2023-05-08T22:33:51.557Z,11.79
2023-05-08T22:36:19.067Z,11.83
2023-05-08T22:38:46.571Z,11.87
2023-05-08T22:41:14.302Z,12.30
2023-05-08T22:43:51.511Z,12.51
2023-05-08T22:46:24.419Z,12.56
2023-05-08T22:48:53.028Z,12.69
2023-05-08T22:51:20.414Z,12.78
2023-05-08T22:53:48.079Z,12.81
2023-05-08T22:56:15.502Z,12.90
2023-05-08T22:58:42.862Z,12.64
2023-05-08T23:01:10.793Z,12.62
2023-05-08T23:03:38.167Z,12.62
2023-05-08T23:06:05.588Z,12.43
2023-05-08T23:08:33.477Z,12.33
2023-05-08T23:11:00.946Z,12.35
2023-05-08T23:13:28.335Z,12.83
2023-05-08T23:15:56.010Z,12.90
2023-05-08T23:18:23.356Z,12.82
2023-05-08T23:20:50.802Z,12.32
2023-05-08T23:23:18.531Z,12.56
2023-05-08T23:25:45.937Z,12.63
2023-05-08T23:28:13.459Z,12.82
2023-05-08T23:30:41.085Z,13.00
2023-05-08T23:33:08.652Z,12.83
2023-05-08T23:35:36.130Z,12.94
2023-05-08T23:38:03.855Z,12.72
2023-05-08T23:40:31.209Z,12.41
2023-05-08T23:42:58.639Z,12.40
2023-05-08T23:45:27.402Z,12.54
2023-05-08T23:47:54.813Z,12.49
2023-05-08T23:50:23.408Z,12.73
2023-05-08T23:52:51.094Z,12.43
2023-05-08T23:55:18.599Z,12.61
2023-05-08T23:57:46.021Z,12.60
